Time;durP1;ratioP1;P1;durP2;ratioP2;P2;SDS_P1;SDS_P2;PMS_P1;PMS_P2;Temp;Humidity;BMP_temperature;BMP_pressure;BME280_temperature;BME280_humidity;BME280_pressure;Samples;Min_cycle;Max_cycle;Signal;HPM_P1;HPM_P2
2023/08/12 00:01:42;;;;;;;13.75;9.02;;;20.50;99.90;;;;;;4802858;29;20049;-51
2023/08/12 00:04:07;;;;;;;11.40;9.02;;;20.40;99.90;;;;;;4802576;29;20143;-50
2023/08/12 00:06:33;;;;;;;13.55;8.48;;;20.50;99.90;;;;;;4802598;29;20121;-49
2023/08/12 00:08:59;;;;;;;12.38;8.77;;;20.50;99.90;;;;;;4802037;29;20436;-52
2023/08/12 00:11:24;;;;;;;12.77;8.85;;;20.50;99.90;;;;;;4802504;29;20099;-53
2023/08/12 00:13:50;;;;;;;12.45;8.98;;;20.30;99.90;;;;;;4802496;29;20050;-51
2023/08/12 00:16:16;;;;;;;13.63;8.80;;;20.40;99.90;;;;;;4801193;29;20051;-51
2023/08/12 00:18:42;;;;;;;13.38;9.13;;;20.30;99.90;;;;;;4802310;29;20109;-51
2023/08/12 00:21:09;;;;;;;14.02;8.48;;;20.30;99.90;;;;;;4802759;29;20046;-50
2023/08/12 00:23:39;;;;;;;14.55;8.85;;;20.40;99.90;;;;;;4802086;29;20073;-49
2023/08/12 00:26:05;;;;;;;12.50;8.82;;;20.30;99.90;;;;;;4800956;29;20054;-49
2023/08/12 00:28:30;;;;;;;12.32;8.70;;;20.40;99.90;;;;;;4802460;29;20503;-51
2023/08/12 00:30:56;;;;;;;16.27;9.77;;;20.30;99.90;;;;;;4801991;29;20126;-50
2023/08/12 00:33:22;;;;;;;12.95;8.82;;;20.30;99.90;;;;;;4801894;29;20088;-49
2023/08/12 00:35:47;;;;;;;12.15;8.73;;;20.20;99.90;;;;;;4802537;29;20427;-51
2023/08/12 00:38:13;;;;;;;11.05;8.10;;;20.20;99.90;;;;;;4801812;29;20107;-52
2023/08/12 00:40:39;;;;;;;15.77;9.27;;;20.30;99.90;;;;;;4801989;29;20051;-49
2023/08/12 00:43:04;;;;;;;13.98;9.25;;;20.20;99.90;;;;;;4802270;29;20044;-50
2023/08/12 00:45:30;;;;;;;13.35;8.60;;;20.20;99.90;;;;;;4801622;29;20129;-52
2023/08/12 00:47:56;;;;;;;11.52;8.73;;;20.20;99.90;;;;;;4801570;29;20091;-51
2023/08/12 00:50:22;;;;;;;11.90;8.18;;;20.10;99.90;;;;;;4802119;29;20203;-52
2023/08/12 00:52:49;;;;;;;12.05;8.43;;;20.10;99.90;;;;;;4800637;29;20051;-48
2023/08/12 00:55:16;;;;;;;15.02;8.98;;;20.10;99.90;;;;;;4801903;29;20046;-53
2023/08/12 00:57:42;;;;;;;12.52;9.07;;;20.20;99.90;;;;;;4800733;29;20449;-49
2023/08/12 01:00:09;;;;;;;11.65;8.32;;;20.10;99.90;;;;;;4801619;29;20062;-51
2023/08/12 01:02:34;;;;;;;14.45;8.95;;;20.10;99.90;;;;;;4802112;29;20047;-51
2023/08/12 01:05:00;;;;;;;12.13;8.20;;;20.10;99.90;;;;;;4801618;29;20047;-51
2023/08/12 01:07:26;;;;;;;10.98;8.20;;;20.00;99.90;;;;;;4801848;29;20168;-51
2023/08/12 01:09:52;;;;;;;13.30;8.38;;;20.00;99.90;;;;;;4804328;29;20496;-51
2023/08/12 01:12:28;;;;;;;12.90;8.75;;;19.90;99.90;;;;;;4805531;29;20039;-50
2023/08/12 01:15:17;;;;;;;14.93;9.25;;;20.10;99.90;;;;;;4804788;29;20519;-53
2023/08/12 01:17:43;;;;;;;13.00;8.23;;;20.00;99.90;;;;;;4805433;29;20050;-52
2023/08/12 01:20:14;;;;;;;12.65;9.00;;;20.00;99.90;;;;;;4805187;29;20180;-51
2023/08/12 01:22:41;;;;;;;11.50;8.05;;;20.00;99.90;;;;;;4804061;29;20449;-50
2023/08/12 01:25:07;;;;;;;14.05;9.15;;;20.00;99.90;;;;;;4802343;29;20051;-52
2023/08/12 01:27:38;;;;;;;12.70;9.15;;;19.90;99.90;;;;;;4818802;29;20107;-52
2023/08/12 01:30:05;;;;;;;12.63;9.23;;;19.90;99.90;;;;;;4804898;29;20043;-51
2023/08/12 01:32:53;;;;;;;13.93;9.48;;;19.80;99.90;;;;;;4804005;29;20048;-50
2023/08/12 01:35:30;;;;;;;13.43;9.20;;;19.80;99.90;;;;;;4804240;29;20054;-50
2023/08/12 01:37:59;;;;;;;13.77;10.40;;;19.70;99.90;;;;;;4805038;29;20042;-52
2023/08/12 01:40:27;;;;;;;12.95;9.80;;;19.70;99.90;;;;;;4805063;29;20884;-49
2023/08/12 01:42:53;;;;;;;16.13;10.48;;;19.70;99.90;;;;;;4805034;29;20506;-49
2023/08/12 01:45:19;;;;;;;14.00;10.18;;;19.70;99.90;;;;;;4787679;29;20054;-50
2023/08/12 01:47:45;;;;;;;15.40;10.55;;;19.60;99.90;;;;;;4805445;29;20035;-52
2023/08/12 01:50:11;;;;;;;14.20;10.40;;;19.60;99.90;;;;;;4805618;29;20047;-52
2023/08/12 01:52:36;;;;;;;14.55;11.02;;;19.70;99.90;;;;;;4803782;29;20522;-53
2023/08/12 01:55:02;;;;;;;16.33;10.75;;;19.70;99.90;;;;;;4804813;29;20046;-53
2023/08/12 01:57:28;;;;;;;15.88;11.52;;;19.70;99.90;;;;;;4804710;29;20495;-50
2023/08/12 01:59:54;;;;;;;15.48;10.48;;;19.70;99.90;;;;;;4803279;29;20058;-53
2023/08/12 02:02:20;;;;;;;14.85;10.80;;;19.50;99.90;;;;;;4804224;29;20047;-52
2023/08/12 02:04:46;;;;;;;17.05;10.30;;;19.60;99.90;;;;;;4804907;29;20043;-53
2023/08/12 02:07:11;;;;;;;16.02;10.95;;;19.60;99.90;;;;;;4804356;29;20057;-51
2023/08/12 02:09:37;;;;;;;17.63;11.55;;;19.60;99.90;;;;;;4804405;29;20376;-50
2023/08/12 02:12:03;;;;;;;18.58;12.10;;;19.70;99.90;;;;;;4804816;29;20042;-51
2023/08/12 02:14:29;;;;;;;20.15;11.80;;;19.40;99.90;;;;;;4804311;29;20562;-49
2023/08/12 02:16:55;;;;;;;19.33;11.60;;;19.60;99.90;;;;;;4804542;29;20108;-50
2023/08/12 02:19:20;;;;;;;15.25;11.63;;;19.70;99.90;;;;;;4804527;29;20072;-50
2023/08/12 02:21:46;;;;;;;17.33;11.60;;;19.70;99.90;;;;;;4803809;29;20035;-50
2023/08/12 02:24:12;;;;;;;16.33;12.00;;;19.50;99.90;;;;;;4804735;29;20046;-49
2023/08/12 02:26:38;;;;;;;15.93;11.25;;;19.60;99.90;;;;;;4802839;29;20039;-50
2023/08/12 02:29:04;;;;;;;15.15;12.45;;;19.60;99.90;;;;;;4804308;29;20047;-53
2023/08/12 02:31:30;;;;;;;16.77;11.43;;;19.60;99.90;;;;;;4803870;29;20070;-50
2023/08/12 02:33:55;;;;;;;15.75;11.38;;;19.70;99.90;;;;;;4804724;29;20074;-51
2023/08/12 02:36:21;;;;;;;13.55;11.60;;;19.60;99.90;;;;;;4804267;29;20043;-52
2023/08/12 02:38:47;;;;;;;18.35;11.65;;;19.70;99.90;;;;;;4817862;29;20400;-51
2023/08/12 02:41:12;;;;;;;19.42;11.82;;;19.80;99.90;;;;;;4804127;29;20125;-51
2023/08/12 02:43:38;;;;;;;15.38;10.95;;;19.80;99.90;;;;;;4803428;29;20047;-53
2023/08/12 02:46:04;;;;;;;16.95;12.02;;;19.70;99.90;;;;;;4803376;29;20141;-53
2023/08/12 02:48:30;;;;;;;16.00;11.45;;;19.70;99.90;;;;;;4803975;29;20468;-52
2023/08/12 02:50:55;;;;;;;17.33;11.13;;;19.90;99.90;;;;;;4801880;29;20061;-52
2023/08/12 02:53:21;;;;;;;16.20;10.80;;;19.80;99.90;;;;;;4786492;29;20082;-53
2023/08/12 02:55:47;;;;;;;16.90;11.50;;;19.90;99.90;;;;;;4804023;29;20050;-51
2023/08/12 02:58:13;;;;;;;15.68;11.02;;;19.70;99.90;;;;;;4803729;29;20400;-51
2023/08/12 03:00:43;;;;;;;15.50;11.23;;;19.80;99.90;;;;;;4803638;29;20078;-53
2023/08/12 03:03:09;;;;;;;14.75;10.43;;;19.90;99.90;;;;;;4803500;29;20433;-50
2023/08/12 03:05:35;;;;;;;17.38;11.23;;;20.00;99.90;;;;;;4803954;29;20103;-51
2023/08/12 03:08:03;;;;;;;15.60;10.75;;;19.90;99.90;;;;;;4802474;29;20399;-51
2023/08/12 03:10:29;;;;;;;16.02;10.65;;;19.80;99.90;;;;;;4803694;29;20073;-51
2023/08/12 03:12:55;;;;;;;16.52;11.30;;;19.90;99.90;;;;;;4803836;29;20035;-49
2023/08/12 03:15:21;;;;;;;17.80;11.32;;;20.00;99.90;;;;;;4802929;29;20547;-50
2023/08/12 03:17:46;;;;;;;19.05;12.32;;;19.90;99.90;;;;;;4803622;29;20384;-52
2023/08/12 03:20:12;;;;;;;16.70;11.35;;;19.80;99.90;;;;;;4816960;29;20046;-53
2023/08/12 03:22:39;;;;;;;19.40;12.10;;;19.90;99.90;;;;;;4803653;29;20035;-49
2023/08/12 03:25:05;;;;;;;18.13;12.02;;;20.10;99.90;;;;;;4802530;29;20111;-53
2023/08/12 03:27:31;;;;;;;16.38;11.65;;;20.00;99.90;;;;;;4803352;29;20046;-49
2023/08/12 03:29:57;;;;;;;15.82;11.75;;;19.90;99.90;;;;;;4802785;29;20039;-50
2023/08/12 03:32:24;;;;;;;17.40;11.68;;;20.00;99.90;;;;;;4801057;29;20384;-53
2023/08/12 03:34:49;;;;;;;17.63;11.05;;;19.90;99.90;;;;;;4801024;29;20069;-51
2023/08/12 03:37:15;;;;;;;16.88;12.38;;;19.90;99.90;;;;;;4803194;29;20047;-51
2023/08/12 03:39:41;;;;;;;19.52;11.95;;;20.10;99.90;;;;;;4804182;29;20434;-52
2023/08/12 03:42:06;;;;;;;17.15;12.27;;;20.10;99.90;;;;;;4803163;29;20715;-52
2023/08/12 03:44:32;;;;;;;19.70;12.82;;;20.00;99.90;;;;;;4802375;29;20133;-50
2023/08/12 03:46:58;;;;;;;20.25;13.48;;;20.10;99.90;;;;;;4802981;29;20042;-50
2023/08/12 03:49:23;;;;;;;18.83;12.98;;;20.10;99.90;;;;;;4816644;29;20047;-50
2023/08/12 03:51:49;;;;;;;20.02;13.38;;;19.90;99.90;;;;;;4802628;29;20055;-50
2023/08/12 03:54:15;;;;;;;20.55;13.48;;;20.00;99.90;;;;;;4802826;29;20088;-52
2023/08/12 03:56:40;;;;;;;19.30;13.23;;;20.00;99.90;;;;;;4802738;29;20047;-51
2023/08/12 03:59:06;;;;;;;18.25;14.48;;;19.80;99.90;;;;;;4802874;29;20055;-52
2023/08/12 04:01:32;;;;;;;18.98;13.68;;;20.10;99.90;;;;;;4802833;29;20051;-52
2023/08/12 04:03:57;;;;;;;21.30;14.52;;;19.90;99.90;;;;;;4802303;29;20126;-52
2023/08/12 04:06:23;;;;;;;18.65;14.60;;;19.90;99.90;;;;;;4803304;29;20046;-54
2023/08/12 04:08:49;;;;;;;23.58;15.27;;;19.90;99.90;;;;;;4801838;29;20129;-51
2023/08/12 04:11:14;;;;;;;21.92;15.70;;;19.90;99.90;;;;;;4802538;29;20062;-53
2023/08/12 04:13:40;;;;;;;21.67;15.70;;;19.90;99.90;;;;;;4802561;29;20495;-54
2023/08/12 04:16:06;;;;;;;26.55;16.50;;;20.00;99.90;;;;;;4799901;29;20054;-49
2023/08/12 04:18:31;;;;;;;24.05;16.67;;;20.00;99.90;;;;;;4802403;29;20585;-53
2023/08/12 04:20:57;;;;;;;25.13;16.73;;;19.90;99.90;;;;;;4802554;29;20487;-50
2023/08/12 04:23:23;;;;;;;27.17;17.85;;;19.90;99.90;;;;;;4802012;29;20126;-52
2023/08/12 04:25:49;;;;;;;27.10;17.42;;;19.80;99.90;;;;;;4801999;29;20399;-51
2023/08/12 04:28:15;;;;;;;25.50;18.40;;;19.80;99.90;;;;;;4801418;29;20043;-52
2023/08/12 04:30:45;;;;;;;28.40;18.10;;;20.10;99.90;;;;;;4801796;29;20041;-52
2023/08/12 04:33:12;;;;;;;28.42;19.08;;;20.10;99.90;;;;;;4801565;29;20398;-51
2023/08/12 04:35:39;;;;;;;25.00;17.85;;;20.10;99.90;;;;;;4802870;29;20031;-52
2023/08/12 04:38:04;;;;;;;27.00;18.85;;;20.10;99.90;;;;;;4800780;29;20373;-49
2023/08/12 04:40:31;;;;;;;29.42;18.92;;;19.80;99.90;;;;;;4801023;29;20049;-53
2023/08/12 04:42:58;;;;;;;32.13;19.45;;;20.10;99.90;;;;;;4801972;29;21092;-50
2023/08/12 04:45:24;;;;;;;31.45;19.33;;;20.10;99.90;;;;;;4801312;29;20099;-51
2023/08/12 04:47:50;;;;;;;27.83;20.17;;;19.80;99.90;;;;;;4800711;29;20046;-51
2023/08/12 04:50:16;;;;;;;28.98;20.45;;;19.80;99.90;;;;;;4801877;29;20051;-52
2023/08/12 04:52:41;;;;;;;30.15;19.90;;;19.90;99.90;;;;;;4800120;29;20059;-51
2023/08/12 04:55:08;;;;;;;30.42;21.17;;;20.00;99.90;;;;;;4802451;29;20058;-51
2023/08/12 04:57:33;;;;;;;30.52;22.30;;;19.90;99.90;;;;;;4802261;29;20138;-50
2023/08/12 04:59:59;;;;;;;30.67;21.48;;;19.90;99.90;;;;;;4801078;29;20161;-53
2023/08/12 05:02:25;;;;;;;33.28;22.35;;;19.90;99.90;;;;;;4800308;29;20043;-52
2023/08/12 05:04:51;;;;;;;28.27;21.48;;;20.20;99.90;;;;;;4816125;29;20039;-53
2023/08/12 05:07:17;;;;;;;29.40;21.00;;;20.10;99.90;;;;;;4802051;29;20043;-50
2023/08/12 05:09:44;;;;;;;31.98;21.58;;;20.20;99.90;;;;;;4800102;29;20039;-53
2023/08/12 05:12:12;;;;;;;35.13;23.10;;;20.10;99.90;;;;;;4801776;29;20046;-52
2023/08/12 05:14:39;;;;;;;32.17;22.20;;;20.20;99.90;;;;;;4801590;29;20043;-49
2023/08/12 05:17:05;;;;;;;29.38;20.67;;;20.30;99.90;;;;;;4801185;29;20063;-51
2023/08/12 05:19:31;;;;;;;33.67;22.95;;;20.40;99.90;;;;;;4801964;29;20086;-51
2023/08/12 05:21:57;;;;;;;30.90;22.25;;;20.40;99.90;;;;;;4799067;29;20487;-50
2023/08/12 05:24:23;;;;;;;31.02;20.65;;;20.40;99.90;;;;;;4801702;29;20043;-52
2023/08/12 05:26:49;;;;;;;29.90;21.73;;;20.30;99.90;;;;;;4801962;29;20074;-52
2023/08/12 05:29:14;;;;;;;31.23;22.27;;;20.20;99.90;;;;;;4800693;29;20043;-50
2023/08/12 05:31:40;;;;;;;30.98;22.65;;;20.30;99.90;;;;;;4802547;29;20050;-53
2023/08/12 05:34:06;;;;;;;30.75;23.30;;;20.60;99.90;;;;;;4801831;29;20534;-51
2023/08/12 05:36:32;;;;;;;35.03;23.33;;;20.50;99.90;;;;;;4799630;29;20043;-50
2023/08/12 05:38:58;;;;;;;32.55;24.00;;;20.30;99.90;;;;;;4801287;29;20131;-47
2023/08/12 05:41:24;;;;;;;33.75;25.13;;;20.30;99.90;;;;;;4801744;29;20054;-53
2023/08/12 05:43:50;;;;;;;37.45;26.27;;;20.40;99.90;;;;;;4815908;29;20051;-51
2023/08/12 05:46:15;;;;;;;33.00;26.08;;;20.30;99.90;;;;;;4800852;29;20499;-50
2023/08/12 05:48:41;;;;;;;37.42;26.17;;;20.30;99.90;;;;;;4801582;29;20080;-49
2023/08/12 05:51:07;;;;;;;37.42;27.20;;;20.60;99.90;;;;;;4801325;29;20582;-52
2023/08/12 05:53:35;;;;;;;38.03;28.25;;;20.60;99.90;;;;;;4801234;29;20054;-53
2023/08/12 05:56:01;;;;;;;39.35;28.58;;;20.50;99.90;;;;;;4802102;29;20592;-49
2023/08/12 05:58:27;;;;;;;39.33;28.52;;;20.70;99.90;;;;;;4805676;29;20123;-51
2023/08/12 06:00:52;;;;;;;41.95;29.83;;;20.40;99.90;;;;;;4803406;29;20054;-51
2023/08/12 06:03:18;;;;;;;38.22;28.52;;;20.30;99.90;;;;;;4802289;29;20101;-50
2023/08/12 06:05:46;;;;;;;42.70;29.73;;;20.30;99.90;;;;;;4804158;29;20039;-50
2023/08/12 06:08:12;;;;;;;40.88;31.10;;;20.60;99.90;;;;;;4803942;29;20076;-49
2023/08/12 06:10:38;;;;;;;40.13;30.05;;;20.70;99.90;;;;;;4804732;29;20130;-51
2023/08/12 06:13:04;;;;;;;42.20;31.30;;;20.60;99.90;;;;;;4804225;29;20126;-54
2023/08/12 06:15:30;;;;;;;41.85;30.67;;;20.30;99.90;;;;;;4803887;29;20114;-50
2023/08/12 06:17:55;;;;;;;44.50;31.15;;;20.60;99.90;;;;;;4804349;29;20049;-51
2023/08/12 06:20:22;;;;;;;45.97;31.83;;;20.70;99.90;;;;;;4804375;29;20042;-53
2023/08/12 06:22:48;;;;;;;40.75;31.23;;;20.50;99.90;;;;;;4803818;29;20074;-49
2023/08/12 06:25:13;;;;;;;47.33;32.35;;;20.70;99.90;;;;;;4804159;29;20137;-50
2023/08/12 06:27:39;;;;;;;41.75;31.75;;;20.70;99.90;;;;;;4804646;29;20039;-53
2023/08/12 06:30:06;;;;;;;44.58;32.20;;;20.30;99.90;;;;;;4803927;29;20130;-50
2023/08/12 06:32:33;;;;;;;45.28;32.88;;;20.40;99.90;;;;;;4804523;29;20054;-53
2023/08/12 06:34:59;;;;;;;46.45;32.50;;;20.40;99.90;;;;;;4804256;29;20049;-50
2023/08/12 06:37:24;;;;;;;46.35;32.45;;;20.60;99.90;;;;;;4803786;29;20491;-50
2023/08/12 06:39:50;;;;;;;44.65;31.27;;;20.40;99.90;;;;;;4802921;29;20105;-53
2023/08/12 06:42:16;;;;;;;45.15;32.50;;;20.30;99.90;;;;;;4804268;29;20115;-51
2023/08/12 06:44:42;;;;;;;49.40;33.10;;;20.40;99.90;;;;;;4803909;29;20047;-52
2023/08/12 06:47:07;;;;;;;42.33;32.45;;;20.70;99.90;;;;;;4803432;29;20042;-52
2023/08/12 06:49:33;;;;;;;48.25;33.00;;;20.40;99.90;;;;;;4803080;29;20070;-53
2023/08/12 06:51:59;;;;;;;44.08;31.85;;;20.50;99.90;;;;;;4803343;29;20093;-51
2023/08/12 06:54:25;;;;;;;44.17;32.33;;;20.30;99.90;;;;;;4804777;29;20050;-51
2023/08/12 06:56:50;;;;;;;42.10;31.38;;;20.70;99.90;;;;;;4803907;29;20377;-53
2023/08/12 06:59:17;;;;;;;41.53;30.65;;;20.70;99.90;;;;;;4803551;29;20065;-51
2023/08/12 07:01:42;;;;;;;40.50;30.42;;;20.70;99.90;;;;;;4801881;29;20054;-50
2023/08/12 07:04:08;;;;;;;44.72;31.92;;;20.70;99.90;;;;;;4802218;29;20047;-50
2023/08/12 07:06:34;;;;;;;41.92;30.85;;;20.70;99.90;;;;;;4803532;29;20408;-51
2023/08/12 07:08:59;;;;;;;40.47;30.60;;;20.50;99.90;;;;;;4802864;29;20095;-50
2023/08/12 07:11:25;;;;;;;44.17;31.98;;;20.50;99.90;;;;;;4802142;29;20488;-52
2023/08/12 07:13:51;;;;;;;44.08;32.13;;;20.60;99.90;;;;;;4803713;29;20054;-52
2023/08/12 07:16:16;;;;;;;41.92;31.85;;;20.70;99.90;;;;;;4802684;29;20051;-53
2023/08/12 07:18:42;;;;;;;40.08;30.77;;;20.90;99.90;;;;;;4803552;29;20325;-52
2023/08/12 07:21:08;;;;;;;43.20;29.60;;;20.90;99.90;;;;;;4804385;29;20118;-53
2023/08/12 07:23:33;;;;;;;39.67;29.90;;;20.70;99.90;;;;;;4803185;29;20057;-52
2023/08/12 07:25:59;;;;;;;41.70;29.95;;;20.60;99.90;;;;;;4803430;29;20393;-50
2023/08/12 07:28:25;;;;;;;40.88;30.23;;;20.50;99.90;;;;;;4803658;29;20046;-51
2023/08/12 07:30:52;;;;;;;40.72;30.30;;;20.50;99.90;;;;;;4802381;29;20038;-52
2023/08/12 07:33:19;;;;;;;41.92;29.15;;;20.50;99.90;;;;;;4803564;29;20437;-47
2023/08/12 07:35:45;;;;;;;46.25;32.35;;;20.80;99.90;;;;;;4802266;29;20043;-51
2023/08/12 07:38:10;;;;;;;44.85;31.45;;;20.80;99.90;;;;;;4802360;29;20492;-52
2023/08/12 07:40:36;;;;;;;42.50;30.67;;;20.80;99.90;;;;;;4803244;29;20031;-51
2023/08/12 07:43:02;;;;;;;43.33;30.98;;;20.50;99.90;;;;;;4803253;29;20058;-52
2023/08/12 07:45:28;;;;;;;40.53;29.65;;;20.40;99.90;;;;;;4801314;29;20049;-49
2023/08/12 07:47:53;;;;;;;43.67;32.22;;;20.50;99.90;;;;;;4803900;29;20117;-48
2023/08/12 07:50:19;;;;;;;40.95;30.20;;;20.80;99.90;;;;;;4803582;29;20497;-51
2023/08/12 07:52:45;;;;;;;43.58;32.38;;;20.40;99.90;;;;;;4801440;29;20124;-49
2023/08/12 07:55:12;;;;;;;51.22;34.25;;;20.40;99.90;;;;;;4801250;29;20436;-50
2023/08/12 07:57:38;;;;;;;46.60;32.65;;;20.30;99.90;;;;;;4785931;29;20050;-50
2023/08/12 08:00:05;;;;;;;52.55;34.42;;;20.20;99.90;;;;;;4801323;29;20111;-48
2023/08/12 08:02:31;;;;;;;47.95;33.13;;;20.20;99.90;;;;;;4803177;29;20050;-50
2023/08/12 08:04:56;;;;;;;47.15;32.50;;;20.40;99.90;;;;;;4801191;29;20057;-48
2023/08/12 08:07:22;;;;;;;45.50;31.27;;;20.40;99.90;;;;;;4802498;29;20042;-52
2023/08/12 08:09:48;;;;;;;36.45;27.35;;;20.60;99.90;;;;;;4802740;29;20117;-49
2023/08/12 08:12:13;;;;;;;41.30;27.52;;;20.60;99.90;;;;;;4802033;29;20067;-47
2023/08/12 08:14:39;;;;;;;39.10;25.13;;;20.10;99.90;;;;;;4802623;29;20085;-52
2023/08/12 08:17:05;;;;;;;32.92;24.10;;;20.10;99.90;;;;;;4802191;29;20126;-50
2023/08/12 08:19:31;;;;;;;34.10;25.05;;;20.10;99.90;;;;;;4802152;29;20050;-51
2023/08/12 08:21:58;;;;;;;36.75;24.30;;;20.00;99.90;;;;;;4815850;29;20104;-50
2023/08/12 08:24:23;;;;;;;37.38;24.90;;;20.50;99.90;;;;;;4802005;29;20111;-48
2023/08/12 08:26:49;;;;;;;27.60;21.05;;;20.20;99.90;;;;;;4801365;29;20042;-48
2023/08/12 08:29:15;;;;;;;28.60;20.45;;;20.00;99.90;;;;;;4802610;29;20540;-50
2023/08/12 08:31:40;;;;;;;24.67;17.35;;;20.40;99.90;;;;;;4800577;29;20055;-51
2023/08/12 08:34:06;;;;;;;23.98;17.08;;;20.40;99.90;;;;;;4802636;29;20121;-51
2023/08/12 08:36:32;;;;;;;20.95;16.23;;;19.90;99.90;;;;;;4802915;29;20095;-51
2023/08/12 08:38:58;;;;;;;19.98;15.68;;;20.00;99.90;;;;;;4801925;29;20100;-48
2023/08/12 08:41:24;;;;;;;19.00;15.65;;;20.50;99.90;;;;;;4802068;29;20492;-53
2023/08/12 08:43:55;;;;;;;24.67;18.25;;;19.90;99.90;;;;;;4802942;29;20043;-51
2023/08/12 08:46:21;;;;;;;21.60;17.25;;;20.30;99.90;;;;;;4802037;29;20047;-52
2023/08/12 08:48:48;;;;;;;18.33;14.18;;;20.40;99.90;;;;;;4801409;29;20039;-50
2023/08/12 08:51:14;;;;;;;16.33;11.98;;;20.20;99.90;;;;;;4801927;29;20511;-50
2023/08/12 08:53:40;;;;;;;17.00;12.80;;;20.00;99.90;;;;;;4801724;29;20145;-49
2023/08/12 08:56:07;;;;;;;15.93;10.75;;;20.30;99.90;;;;;;4802009;29;20050;-49
2023/08/12 08:58:33;;;;;;;13.13;10.43;;;20.00;99.90;;;;;;4802446;29;20061;-52
2023/08/12 09:00:59;;;;;;;10.82;8.90;;;20.00;99.90;;;;;;4799803;29;20419;-49
2023/08/12 09:03:26;;;;;;;12.23;8.95;;;20.20;99.90;;;;;;4802193;29;20051;-50
2023/08/12 09:05:55;;;;;;;12.02;9.18;;;20.00;99.90;;;;;;4801607;29;20035;-52
2023/08/12 09:08:21;;;;;;;11.13;9.30;;;20.20;99.90;;;;;;4814327;29;20051;-49
2023/08/12 09:10:48;;;;;;;9.45;8.00;;;20.20;99.90;;;;;;4802056;29;20039;-50
2023/08/12 09:13:14;;;;;;;9.10;7.13;;;20.30;99.90;;;;;;4802537;29;20096;-53
2023/08/12 09:15:40;;;;;;;8.00;5.90;;;20.60;99.90;;;;;;4801739;29;20399;-51
2023/08/12 09:18:06;;;;;;;8.00;6.15;;;20.50;99.90;;;;;;4802068;29;20057;-56
2023/08/12 09:20:36;;;;;;;9.35;6.40;;;20.50;99.90;;;;;;4801633;29;20054;-53
2023/08/12 09:23:02;;;;;;;8.55;6.50;;;20.20;99.90;;;;;;4801864;29;21237;-53
2023/08/12 09:25:29;;;;;;;9.43;6.90;;;20.30;99.90;;;;;;4800632;29;20499;-55
2023/08/12 09:28:01;;;;;;;8.63;5.82;;;19.80;99.90;;;;;;4815076;29;20042;-53
2023/08/12 09:30:33;;;;;;;8.65;5.32;;;20.10;99.90;;;;;;4800284;29;20076;-53
2023/08/12 09:33:01;;;;;;;8.30;5.90;;;19.90;99.90;;;;;;4804941;29;20080;-54
2023/08/12 09:35:32;;;;;;;7.68;5.50;;;20.10;99.90;;;;;;4804395;29;20443;-53
2023/08/12 09:37:58;;;;;;;6.57;5.82;;;20.30;99.90;;;;;;4805214;29;20388;-54
2023/08/12 09:40:24;;;;;;;7.25;5.97;;;20.50;99.90;;;;;;4804312;29;20039;-54
2023/08/12 09:42:50;;;;;;;6.35;5.20;;;20.00;99.90;;;;;;4804696;29;20051;-54
2023/08/12 09:45:20;;;;;;;8.77;5.22;;;20.00;99.90;;;;;;4804625;29;20085;-53
2023/08/12 09:47:46;;;;;;;7.47;5.00;;;20.60;99.90;;;;;;4806062;29;20394;-54
2023/08/12 09:50:13;;;;;;;7.40;5.32;;;20.50;99.90;;;;;;4804057;29;20113;-55
2023/08/12 09:52:40;;;;;;;6.65;5.07;;;20.50;99.90;;;;;;4804534;29;20411;-55
2023/08/12 09:55:08;;;;;;;5.55;4.50;;;20.20;99.90;;;;;;4804069;29;20058;-55
2023/08/12 09:57:36;;;;;;;6.88;3.78;;;20.40;99.90;;;;;;4804976;29;20042;-53
2023/08/12 10:00:03;;;;;;;5.05;3.42;;;20.30;99.90;;;;;;4803112;29;20046;-55
2023/08/12 10:02:29;;;;;;;4.97;3.10;;;20.70;99.90;;;;;;4804386;29;20034;-54
2023/08/12 10:04:58;;;;;;;7.63;3.42;;;20.30;99.90;;;;;;4803144;29;20065;-53
2023/08/12 10:07:24;;;;;;;4.90;2.88;;;20.40;99.90;;;;;;4803288;29;20080;-53
2023/08/12 10:09:51;;;;;;;4.55;3.35;;;20.30;99.90;;;;;;4804709;29;20038;-55
2023/08/12 10:12:17;;;;;;;5.18;3.35;;;20.60;99.90;;;;;;4804653;29;20381;-52
2023/08/12 10:14:43;;;;;;;4.57;2.70;;;20.90;99.90;;;;;;4804598;29;20522;-54
2023/08/12 10:17:10;;;;;;;4.43;2.85;;;20.60;99.90;;;;;;4803641;29;20086;-53
2023/08/12 10:19:36;;;;;;;6.50;3.40;;;20.80;99.90;;;;;;4804827;29;20125;-53
2023/08/12 10:22:04;;;;;;;5.57;3.28;;;20.50;99.90;;;;;;4804053;29;20110;-55
2023/08/12 10:24:29;;;;;;;4.75;3.03;;;21.10;99.90;;;;;;4804264;29;20050;-52
2023/08/12 10:26:55;;;;;;;5.50;3.58;;;20.70;99.90;;;;;;4803810;29;20130;-54
2023/08/12 10:29:24;;;;;;;5.95;3.47;;;20.80;99.90;;;;;;4804302;29;20047;-54
2023/08/12 10:31:50;;;;;;;4.40;3.47;;;20.50;99.90;;;;;;4804010;29;20069;-50
2023/08/12 10:34:24;;;;;;;4.50;2.90;;;20.90;99.90;;;;;;4803977;29;20038;-53
2023/08/12 10:36:56;;;;;;;4.38;2.20;;;21.10;99.90;;;;;;4804297;29;20548;-53
2023/08/12 10:39:26;;;;;;;3.45;1.77;;;21.00;99.90;;;;;;4804218;29;20043;-53
2023/08/12 10:41:55;;;;;;;2.63;1.50;;;20.70;99.90;;;;;;4803938;29;20082;-52
2023/08/12 10:44:22;;;;;;;1.80;0.90;;;21.00;99.90;;;;;;4803649;29;20138;-55
2023/08/12 10:46:52;;;;;;;1.60;0.80;;;20.80;99.90;;;;;;4802487;29;20047;-55
2023/08/12 10:49:21;;;;;;;1.92;0.80;;;20.60;99.90;;;;;;4801238;29;20043;-50
2023/08/12 10:51:52;;;;;;;3.00;0.98;;;20.80;99.90;;;;;;4804336;29;20063;-55
2023/08/12 10:54:20;;;;;;;3.05;1.02;;;20.80;99.90;;;;;;4803546;29;20046;-52
2023/08/12 10:57:01;;;;;;;3.45;0.90;;;20.70;99.90;;;;;;4803703;29;20045;-56
2023/08/12 10:59:45;;;;;;;1.73;0.80;;;20.80;99.90;;;;;;4803316;29;20484;-53
2023/08/12 11:02:30;;;;;;;1.98;1.13;;;20.70;99.90;;;;;;4803409;29;20103;-51
2023/08/12 11:04:56;;;;;;;3.15;1.38;;;20.90;99.90;;;;;;4802274;29;20399;-52
2023/08/12 11:07:44;;;;;;;3.53;1.60;;;21.10;99.90;;;;;;4803254;29;20039;-54
2023/08/12 11:10:17;;;;;;;5.47;2.05;;;20.70;99.90;;;;;;4803010;29;20050;-52
2023/08/12 11:12:51;;;;;;;3.47;1.20;;;20.50;99.90;;;;;;4803762;29;20042;-54
2023/08/12 11:15:17;;;;;;;;;;;20.60;99.90;;;;;;4803405;29;20107;-50
2023/08/12 11:17:45;;;;;;;6.00;2.22;;;20.60;99.90;;;;;;4803681;29;19925;-51
2023/08/12 11:20:13;;;;;;;6.07;2.75;;;20.30;99.90;;;;;;4803520;29;20103;-51
2023/08/12 11:22:43;;;;;;;6.43;3.03;;;20.10;99.90;;;;;;4803486;29;20047;-52
2023/08/12 11:25:11;;;;;;;6.55;2.60;;;20.30;99.90;;;;;;4803118;29;20084;-52
2023/08/12 11:27:45;;;;;;;8.20;3.10;;;20.30;99.90;;;;;;4803106;29;20047;-53
2023/08/12 11:30:14;;;;;;;8.90;3.00;;;20.00;99.90;;;;;;4803049;29;20479;-53
2023/08/12 11:32:44;;;;;;;7.28;3.20;;;19.80;99.90;;;;;;4803602;29;20158;-52
2023/08/12 11:35:10;;;;;;;7.68;3.20;;;20.20;99.90;;;;;;4802413;29;20170;-54
2023/08/12 11:37:38;;;;;;;7.63;3.08;;;20.00;99.90;;;;;;4801130;29;20549;-54
2023/08/12 11:40:11;;;;;;;7.75;2.60;;;20.50;99.90;;;;;;4802842;29;20399;-52
2023/08/12 11:42:41;;;;;;;6.60;2.67;;;20.30;99.90;;;;;;4802437;29;20051;-56
2023/08/12 11:45:08;;;;;;;6.65;2.72;;;20.50;99.90;;;;;;4803561;29;20043;-53
2023/08/12 11:47:35;;;;;;;7.85;2.70;;;20.50;99.90;;;;;;4802275;29;20039;-52
2023/08/12 11:50:05;;;;;;;7.25;2.25;;;20.50;99.90;;;;;;4803535;29;20035;-53
2023/08/12 11:52:31;;;;;;;7.25;2.50;;;20.70;99.90;;;;;;4801256;29;20055;-51
2023/08/12 11:54:57;;;;;;;6.95;2.53;;;20.80;99.90;;;;;;4802586;29;20058;-53
2023/08/12 11:57:23;;;;;;;7.65;2.15;;;20.90;99.90;;;;;;4803119;29;20049;-52
2023/08/12 11:59:57;;;;;;;4.97;1.90;;;21.10;99.90;;;;;;4802611;29;20380;-51
2023/08/12 12:02:23;;;;;;;5.97;1.83;;;21.00;99.90;;;;;;4801849;29;20250;-54
2023/08/12 12:04:52;;;;;;;8.38;1.95;;;21.00;99.90;;;;;;4802880;29;20511;-55
2023/08/12 12:07:22;;;;;;;6.38;2.05;;;21.10;99.90;;;;;;4800909;29;20043;-50
2023/08/12 12:09:52;;;;;;;6.78;2.15;;;21.10;99.90;;;;;;4802226;29;20411;-52
2023/08/12 12:12:22;;;;;;;8.07;2.00;;;21.20;99.90;;;;;;4802412;29;20530;-54
2023/08/12 12:14:48;;;;;;;9.68;2.70;;;21.30;99.90;;;;;;4801752;29;20038;-54
2023/08/12 12:17:15;;;;;;;5.55;1.90;;;21.60;99.90;;;;;;4786476;29;20069;-50
2023/08/12 12:19:41;;;;;;;7.00;1.70;;;21.80;99.90;;;;;;4802677;29;20043;-52
2023/08/12 12:22:07;;;;;;;8.13;2.10;;;22.20;99.90;;;;;;4802512;29;20527;-50
2023/08/12 12:24:44;;;;;;;5.95;1.90;;;22.30;99.90;;;;;;4803139;29;20055;-53
2023/08/12 12:27:11;;;;;;;6.65;1.70;;;22.20;99.90;;;;;;4800840;29;20051;-53
2023/08/12 12:29:36;;;;;;;7.63;2.03;;;22.40;99.90;;;;;;4802307;29;20387;-55
2023/08/12 12:32:02;;;;;;;7.13;2.17;;;22.50;99.90;;;;;;4802813;29;20043;-53